Time;durP1;ratioP1;P1;durP2;ratioP2;P2;SDS_P1;SDS_P2;PMS_P1;PMS_P2;Temp;Humidity;BMP_temperature;BMP_pressure;BME280_temperature;BME280_humidity;BME280_pressure;Samples;Min_cycle;Max_cycle;Signal;HPM_P1;HPM_P2
2024/03/23 00:00:47;;;;;;;16.80;7.93;;;7.00;70.20;;;;;;5040337;28;20429;-59
2024/03/23 00:03:14;;;;;;;12.00;6.70;;;6.90;71.00;;;;;;5047416;28;20432;-60
2024/03/23 00:05:40;;;;;;;14.57;6.57;;;6.90;71.80;;;;;;5028361;28;20449;-61
2024/03/23 00:08:07;;;;;;;14.40;7.10;;;6.90;72.30;;;;;;5040659;28;20471;-61
2024/03/23 00:10:37;;;;;;;8.90;6.57;;;6.90;72.80;;;;;;5037720;28;20503;-61
2024/03/23 00:13:04;;;;;;;7.93;5.70;;;6.90;73.10;;;;;;5014952;28;20509;-60
2024/03/23 00:15:33;;;;;;;10.60;6.30;;;6.90;73.20;;;;;;5039789;28;20449;-61
2024/03/23 00:17:59;;;;;;;11.27;6.00;;;6.90;72.80;;;;;;5044093;28;20468;-60
2024/03/23 00:20:26;;;;;;;12.90;6.30;;;6.80;72.50;;;;;;5037282;28;20439;-60
2024/03/23 00:22:52;;;;;;;11.90;6.63;;;6.80;72.90;;;;;;5018972;28;20951;-60
2024/03/23 00:25:19;;;;;;;9.17;6.70;;;6.70;73.30;;;;;;5041288;28;20421;-61
2024/03/23 00:27:45;;;;;;;9.40;6.17;;;6.70;74.10;;;;;;5043302;28;20447;-60
2024/03/23 00:30:12;;;;;;;16.03;7.23;;;6.70;74.50;;;;;;5040807;28;20448;-59
2024/03/23 00:32:38;;;;;;;10.90;6.50;;;6.60;74.20;;;;;;5043915;28;20802;-60
2024/03/23 00:35:05;;;;;;;11.03;6.10;;;6.60;74.50;;;;;;5036674;28;20423;-60
2024/03/23 00:37:31;;;;;;;15.73;7.43;;;6.60;75.00;;;;;;5037520;28;20483;-61
2024/03/23 00:39:58;;;;;;;11.80;7.03;;;6.60;75.60;;;;;;5042187;28;20417;-59
2024/03/23 00:42:24;;;;;;;13.93;6.90;;;6.60;75.50;;;;;;5038918;28;20425;-60
2024/03/23 00:44:51;;;;;;;11.57;7.40;;;6.50;75.60;;;;;;5050187;28;20424;-60
2024/03/23 00:47:17;;;;;;;12.90;7.40;;;6.50;76.20;;;;;;5042837;28;20445;-60
2024/03/23 00:49:44;;;;;;;15.00;7.70;;;6.50;76.90;;;;;;5045061;28;20435;-61
2024/03/23 00:52:10;;;;;;;12.20;6.80;;;6.40;77.60;;;;;;5045696;28;20449;-60
2024/03/23 00:54:36;;;;;;;13.00;7.60;;;6.40;78.10;;;;;;5040070;28;21114;-61
2024/03/23 00:57:01;;;;;;;11.40;7.43;;;6.40;77.90;;;;;;5040989;28;20445;-60
2024/03/23 00:59:28;;;;;;;16.40;7.43;;;6.40;77.60;;;;;;5049878;28;20175;-60
2024/03/23 01:01:54;;;;;;;12.27;7.47;;;6.40;77.90;;;;;;5044636;28;20202;-59
2024/03/23 01:04:20;;;;;;;13.93;7.20;;;6.30;78.40;;;;;;5038889;28;21122;-60
2024/03/23 01:06:45;;;;;;;10.80;6.90;;;6.30;80.00;;;;;;5048047;28;20463;-60
2024/03/23 01:09:11;;;;;;;18.80;8.00;;;6.30;80.00;;;;;;5048079;28;20179;-60
2024/03/23 01:11:37;;;;;;;13.17;8.27;;;6.30;79.40;;;;;;5039021;28;20171;-60
2024/03/23 01:14:03;;;;;;;15.93;7.93;;;6.30;79.40;;;;;;5038018;28;20184;-60
2024/03/23 01:16:28;;;;;;;13.33;7.50;;;6.30;79.70;;;;;;5038772;28;20245;-60
2024/03/23 01:18:54;;;;;;;19.30;7.90;;;6.20;80.10;;;;;;5036507;28;20469;-60
2024/03/23 01:21:20;;;;;;;14.50;7.83;;;6.20;81.20;;;;;;5049089;28;20559;-60
2024/03/23 01:23:45;;;;;;;13.50;7.53;;;6.20;82.40;;;;;;5031852;28;20192;-61
2024/03/23 01:26:11;;;;;;;13.70;6.93;;;6.20;83.00;;;;;;5038764;28;20828;-60
2024/03/23 01:28:36;;;;;;;11.77;7.20;;;6.20;83.30;;;;;;5040536;28;20183;-60
2024/03/23 01:31:02;;;;;;;14.23;7.90;;;6.20;82.70;;;;;;5043249;28;20650;-60
2024/03/23 01:33:28;;;;;;;10.10;7.03;;;6.10;82.80;;;;;;5042748;28;20257;-61
2024/03/23 01:35:54;;;;;;;10.47;6.70;;;6.10;83.70;;;;;;5042322;28;20442;-60
2024/03/23 01:38:19;;;;;;;11.93;7.20;;;6.10;85.50;;;;;;5038880;28;20223;-61
2024/03/23 01:40:46;;;;;;;10.50;7.60;;;6.10;86.70;;;;;;5046439;28;20758;-60
2024/03/23 01:43:11;;;;;;;12.47;7.30;;;6.10;87.60;;;;;;5046038;28;21305;-60
2024/03/23 01:45:38;;;;;;;15.53;7.60;;;6.10;88.10;;;;;;5043546;28;20712;-60
2024/03/23 01:48:04;;;;;;;10.03;7.00;;;6.10;87.70;;;;;;5045245;28;20187;-60
2024/03/23 01:50:34;;;;;;;10.97;7.57;;;6.10;87.40;;;;;;5041007;28;20441;-60
2024/03/23 01:53:06;;;;;;;10.77;6.50;;;6.10;88.30;;;;;;5029868;28;20483;-60
2024/03/23 01:55:32;;;;;;;10.93;7.07;;;6.10;88.90;;;;;;5051896;28;20447;-60
2024/03/23 01:57:58;;;;;;;10.27;6.70;;;6.10;90.20;;;;;;5033558;28;20950;-60
2024/03/23 02:00:24;;;;;;;12.20;6.33;;;6.10;90.10;;;;;;5042861;28;20539;-60
2024/03/23 02:02:49;;;;;;;10.23;6.57;;;6.10;89.10;;;;;;5047567;28;20261;-60
2024/03/23 02:05:15;;;;;;;13.40;6.47;;;6.00;90.50;;;;;;5048312;28;20167;-60
2024/03/23 02:07:42;;;;;;;9.30;6.00;;;6.00;91.40;;;;;;5046806;28;20241;-61
2024/03/23 02:10:09;;;;;;;11.60;7.00;;;6.00;91.80;;;;;;5041489;28;20848;-60
2024/03/23 02:12:35;;;;;;;12.03;6.27;;;6.10;91.90;;;;;;5028247;28;20420;-61
2024/03/23 02:15:01;;;;;;;10.60;6.70;;;6.00;91.70;;;;;;5046138;28;20501;-60
2024/03/23 02:17:27;;;;;;;8.87;6.27;;;6.10;91.50;;;;;;5044204;28;20497;-60
2024/03/23 02:19:53;;;;;;;13.07;7.57;;;6.10;91.00;;;;;;5044505;28;20180;-60
2024/03/23 02:22:18;;;;;;;10.70;7.43;;;6.10;90.80;;;;;;5026822;28;21635;-61
2024/03/23 02:24:44;;;;;;;12.97;7.37;;;6.00;90.70;;;;;;5053047;28;20179;-60
2024/03/23 02:27:10;;;;;;;12.20;7.27;;;6.00;91.10;;;;;;5049269;28;20588;-61
2024/03/23 02:29:35;;;;;;;10.23;6.60;;;6.00;92.30;;;;;;5040094;28;20179;-61
2024/03/23 02:32:01;;;;;;;13.03;6.83;;;6.10;92.70;;;;;;5040527;28;20188;-60
2024/03/23 02:34:27;;;;;;;9.53;6.67;;;6.10;93.10;;;;;;5042100;28;20187;-60
2024/03/23 02:36:52;;;;;;;14.63;7.23;;;6.10;92.80;;;;;;5040998;28;20211;-61
2024/03/23 02:39:18;;;;;;;13.40;6.40;;;6.10;92.70;;;;;;5055497;28;20653;-61
2024/03/23 02:41:43;;;;;;;10.07;7.47;;;6.10;92.30;;;;;;5042334;28;20179;-60
2024/03/23 02:44:11;;;;;;;14.83;7.73;;;6.10;92.40;;;;;;5046820;28;20537;-60
2024/03/23 02:46:40;;;;;;;10.40;6.40;;;6.00;91.80;;;;;;5042822;28;20687;-60
2024/03/23 02:49:06;;;;;;;10.43;6.43;;;6.00;92.00;;;;;;5051644;28;20427;-60
2024/03/23 02:51:32;;;;;;;11.90;6.70;;;6.00;93.00;;;;;;5052587;28;20449;-60
2024/03/23 02:53:57;;;;;;;10.60;7.00;;;6.00;93.90;;;;;;5042708;28;20462;-61
2024/03/23 02:56:23;;;;;;;13.17;7.10;;;6.00;95.40;;;;;;5043306;28;20199;-60
2024/03/23 02:58:48;;;;;;;11.23;6.27;;;6.10;95.60;;;;;;5029309;28;20235;-61
2024/03/23 03:01:14;;;;;;;18.67;7.40;;;6.10;96.10;;;;;;5044433;28;20522;-61
2024/03/23 03:03:40;;;;;;;10.30;6.00;;;6.20;96.90;;;;;;5044289;28;20796;-60
2024/03/23 03:06:05;;;;;;;12.97;8.03;;;6.20;97.50;;;;;;5048341;28;20175;-60
2024/03/23 03:08:31;;;;;;;20.73;8.63;;;6.20;98.10;;;;;;5044120;28;20187;-60
2024/03/23 03:10:56;;;;;;;10.53;6.63;;;6.30;98.90;;;;;;5047296;28;20190;-61
2024/03/23 03:13:22;;;;;;;13.93;7.30;;;6.40;99.90;;;;;;5046773;28;20179;-60
2024/03/23 03:15:48;;;;;;;13.17;7.13;;;6.40;99.90;;;;;;5035129;28;20198;-61
2024/03/23 03:18:13;;;;;;;16.33;7.23;;;6.50;99.90;;;;;;5040138;28;20612;-61
2024/03/23 03:20:42;;;;;;;12.90;7.70;;;6.60;99.90;;;;;;5045178;28;20179;-61
2024/03/23 03:23:07;;;;;;;15.77;7.33;;;6.60;99.90;;;;;;5044114;28;20254;-60
2024/03/23 03:25:33;;;;;;;15.37;7.50;;;6.70;99.10;;;;;;5044772;28;20938;-60
2024/03/23 03:27:59;;;;;;;10.47;6.67;;;6.70;98.10;;;;;;5047931;28;20191;-60
2024/03/23 03:30:25;;;;;;;11.83;6.20;;;6.70;98.10;;;;;;5030930;28;20437;-59
2024/03/23 03:32:53;;;;;;;7.90;5.10;;;6.80;98.80;;;;;;5044920;28;20220;-60
2024/03/23 03:35:19;;;;;;;11.07;4.73;;;6.80;99.90;;;;;;5047563;28;20426;-61
2024/03/23 03:37:44;;;;;;;9.23;5.03;;;6.90;99.90;;;;;;5035329;28;20476;-60
2024/03/23 03:40:11;;;;;;;8.37;4.93;;;7.00;99.90;;;;;;5044539;28;20191;-61
2024/03/23 03:42:36;;;;;;;10.50;4.83;;;7.20;99.90;;;;;;5046557;28;20605;-61
2024/03/23 03:45:04;;;;;;;7.30;5.13;;;7.30;99.90;;;;;;5042769;28;20430;-60
2024/03/23 03:47:30;;;;;;;10.57;5.13;;;7.50;99.90;;;;;;5025259;28;20191;-61
2024/03/23 03:49:55;;;;;;;7.80;5.10;;;7.60;99.90;;;;;;5045677;28;20445;-59
2024/03/23 03:52:21;;;;;;;10.37;5.00;;;7.70;98.90;;;;;;5042288;28;20179;-60
2024/03/23 03:54:46;;;;;;;7.70;5.37;;;7.70;98.10;;;;;;5036339;28;20561;-61
2024/03/23 03:57:12;;;;;;;14.03;5.17;;;7.70;96.90;;;;;;5034934;28;20730;-60
2024/03/23 03:59:37;;;;;;;6.63;5.00;;;7.70;96.40;;;;;;5042400;28;20234;-61
2024/03/23 04:02:03;;;;;;;8.00;5.20;;;7.70;96.80;;;;;;5047788;28;20646;-61
2024/03/23 04:04:29;;;;;;;7.70;4.80;;;7.60;97.40;;;;;;5045115;28;20199;-60
2024/03/23 04:07:01;;;;;;;9.40;5.90;;;7.60;97.30;;;;;;5049056;28;20221;-60
2024/03/23 04:09:27;;;;;;;10.23;5.43;;;7.50;95.80;;;;;;5040092;28;20214;-60
2024/03/23 04:11:53;;;;;;;8.07;5.20;;;7.50;93.70;;;;;;5037341;28;20462;-60
2024/03/23 04:14:19;;;;;;;8.60;4.83;;;7.40;93.50;;;;;;5044825;28;20456;-61
2024/03/23 04:16:44;;;;;;;8.67;5.80;;;7.30;95.10;;;;;;5046464;28;20366;-60
2024/03/23 04:19:10;;;;;;;11.93;6.67;;;7.20;94.40;;;;;;5045469;28;20906;-60
2024/03/23 04:21:37;;;;;;;14.83;5.77;;;7.10;94.60;;;;;;5023239;28;20536;-60
2024/03/23 04:24:03;;;;;;;11.27;7.10;;;7.00;94.20;;;;;;5042572;28;20234;-61
2024/03/23 04:26:29;;;;;;;12.40;7.40;;;7.00;92.60;;;;;;5042850;28;20993;-60
2024/03/23 04:28:55;;;;;;;16.97;8.20;;;6.80;92.10;;;;;;5038552;28;20439;-61
2024/03/23 04:31:21;;;;;;;15.03;7.47;;;6.70;92.70;;;;;;5039568;28;20253;-60
2024/03/23 04:33:47;;;;;;;16.03;7.60;;;6.70;93.10;;;;;;5043780;28;20394;-61
2024/03/23 04:36:12;;;;;;;17.90;7.50;;;6.60;94.40;;;;;;5040338;28;21127;-60
2024/03/23 04:38:38;;;;;;;10.23;7.00;;;6.60;95.40;;;;;;5044661;28;20209;-60
2024/03/23 04:41:04;;;;;;;9.10;5.57;;;6.60;96.50;;;;;;5049928;28;20217;-61
2024/03/23 04:43:29;;;;;;;11.37;6.57;;;6.50;98.20;;;;;;5037259;28;20254;-60
2024/03/23 04:45:55;;;;;;;11.50;6.73;;;6.60;99.60;;;;;;5037407;28;20176;-61
2024/03/23 04:48:22;;;;;;;9.20;6.27;;;6.60;99.90;;;;;;5040649;28;20842;-61
2024/03/23 04:50:49;;;;;;;13.20;6.33;;;6.70;99.90;;;;;;5039984;28;20542;-60
2024/03/23 04:53:15;;;;;;;9.50;6.60;;;6.70;99.90;;;;;;5044989;28;20429;-61
2024/03/23 04:55:41;;;;;;;10.60;5.87;;;6.80;99.90;;;;;;5042117;28;20538;-61
2024/03/23 04:58:07;;;;;;;8.50;6.03;;;6.90;99.90;;;;;;5040736;28;20462;-60
2024/03/23 05:00:33;;;;;;;9.77;5.90;;;7.00;99.90;;;;;;5037383;28;20822;-60
2024/03/23 05:02:58;;;;;;;9.00;5.20;;;7.20;99.90;;;;;;5034244;28;20306;-60
2024/03/23 05:05:24;;;;;;;6.33;4.30;;;7.30;99.90;;;;;;5042942;28;20187;-61
2024/03/23 05:07:49;;;;;;;5.77;3.90;;;7.50;99.90;;;;;;5040118;28;20256;-60
2024/03/23 05:10:15;;;;;;;7.37;4.30;;;7.70;99.90;;;;;;5046653;28;20661;-60
2024/03/23 05:12:40;;;;;;;5.33;3.67;;;8.00;99.90;;;;;;5046305;28;20187;-60
2024/03/23 05:15:09;;;;;;;9.00;4.40;;;8.30;99.90;;;;;;5046696;28;20183;-61
2024/03/23 05:17:36;;;;;;;11.63;4.07;;;8.50;99.90;;;;;;5044789;28;20686;-61
2024/03/23 05:20:01;;;;;;;6.47;4.07;;;8.70;99.90;;;;;;5035704;28;20471;-61
2024/03/23 05:22:27;;;;;;;6.43;3.90;;;8.90;99.90;;;;;;5043345;28;20410;-59
2024/03/23 05:24:53;;;;;;;7.20;3.40;;;9.10;99.90;;;;;;5045641;28;20166;-61
2024/03/23 05:27:19;;;;;;;7.27;3.70;;;9.30;99.90;;;;;;5044473;28;20218;-60
2024/03/23 05:29:44;;;;;;;7.00;3.53;;;9.40;99.90;;;;;;5047218;28;20449;-61
2024/03/23 05:32:10;;;;;;;6.37;3.80;;;9.40;99.90;;;;;;5042232;28;20190;-60
2024/03/23 05:34:36;;;;;;;4.63;3.50;;;9.50;99.90;;;;;;5041165;28;20179;-61
2024/03/23 05:37:01;;;;;;;3.67;3.03;;;9.50;99.90;;;;;;5045105;28;20215;-59
2024/03/23 05:39:28;;;;;;;3.00;2.70;;;9.60;99.90;;;;;;5050657;28;20546;-59
2024/03/23 05:41:54;;;;;;;4.63;2.40;;;9.60;99.90;;;;;;5049554;28;20203;-61
2024/03/23 05:44:19;;;;;;;5.07;2.90;;;9.60;99.90;;;;;;5048751;28;20535;-61
2024/03/23 05:46:48;;;;;;;5.10;2.70;;;9.70;99.90;;;;;;5052926;28;20246;-61
2024/03/23 05:49:15;;;;;;;3.43;2.73;;;9.70;99.90;;;;;;5044898;28;20203;-60
2024/03/23 05:51:40;;;;;;;4.63;3.20;;;9.70;99.90;;;;;;5044840;28;20410;-61
2024/03/23 05:54:06;;;;;;;5.03;3.40;;;9.70;99.90;;;;;;5040212;28;20810;-61
2024/03/23 05:56:32;;;;;;;6.23;3.13;;;9.70;99.90;;;;;;5048010;28;20333;-59
2024/03/23 05:58:57;;;;;;;6.20;3.53;;;9.70;99.90;;;;;;5050520;28;20202;-61
2024/03/23 06:01:23;;;;;;;5.10;3.30;;;9.70;99.90;;;;;;5046781;28;20172;-61
2024/03/23 06:03:48;;;;;;;4.60;3.03;;;9.70;99.90;;;;;;5040578;28;20534;-61
2024/03/23 06:06:14;;;;;;;4.90;3.03;;;9.70;99.90;;;;;;5046556;28;20423;-60
2024/03/23 06:08:40;;;;;;;3.57;2.83;;;9.70;99.90;;;;;;5050927;28;20181;-61
2024/03/23 06:11:08;;;;;;;3.90;3.10;;;9.70;99.90;;;;;;5046254;28;20182;-61
2024/03/23 06:13:34;;;;;;;3.67;3.20;;;9.70;99.90;;;;;;5043203;28;20206;-60
2024/03/23 06:16:01;;;;;;;7.23;3.30;;;9.70;99.90;;;;;;5035655;28;20460;-60
2024/03/23 06:18:27;;;;;;;5.53;3.07;;;9.70;99.90;;;;;;5038428;28;20458;-59
2024/03/23 06:20:53;;;;;;;4.43;3.03;;;9.70;99.90;;;;;;5050840;28;20506;-61
2024/03/23 06:23:20;;;;;;;4.33;3.23;;;9.70;99.90;;;;;;5042266;28;20508;-60
2024/03/23 06:25:46;;;;;;;11.13;3.17;;;9.70;99.90;;;;;;5046544;28;20643;-61
2024/03/23 06:28:12;;;;;;;5.03;3.30;;;9.70;99.90;;;;;;5036958;28;20809;-61
2024/03/23 06:30:37;;;;;;;5.23;4.30;;;9.70;99.90;;;;;;5039790;28;20437;-60
2024/03/23 06:33:03;;;;;;;4.20;3.40;;;9.70;99.90;;;;;;5045450;28;20203;-60
2024/03/23 06:35:28;;;;;;;4.57;3.03;;;9.80;99.90;;;;;;5045080;28;20176;-60
2024/03/23 06:37:54;;;;;;;4.33;3.00;;;9.80;99.90;;;;;;5046633;28;20705;-61
2024/03/23 06:40:20;;;;;;;3.10;2.80;;;9.80;99.90;;;;;;5040969;28;21001;-60
2024/03/23 06:42:45;;;;;;;4.57;3.17;;;9.80;99.90;;;;;;5046751;28;20175;-60
2024/03/23 06:45:11;;;;;;;2.97;2.63;;;9.70;99.90;;;;;;5037374;28;20547;-61
2024/03/23 06:47:37;;;;;;;4.20;2.90;;;9.70;99.90;;;;;;5047262;28;20202;-61
2024/03/23 06:50:04;;;;;;;3.13;2.83;;;9.70;99.90;;;;;;5046696;28;20589;-61
2024/03/23 06:52:30;;;;;;;3.37;3.07;;;9.60;99.90;;;;;;5046823;28;20171;-61
2024/03/23 06:54:55;;;;;;;3.80;3.20;;;9.50;99.90;;;;;;5046457;28;20504;-61
2024/03/23 06:57:21;;;;;;;6.43;4.07;;;9.50;99.90;;;;;;5047604;28;20500;-61
2024/03/23 06:59:47;;;;;;;5.50;3.50;;;9.40;99.90;;;;;;5044564;28;20176;-61
2024/03/23 07:02:12;;;;;;;8.43;3.37;;;9.40;99.90;;;;;;5043184;28;20705;-61
2024/03/23 07:04:39;;;;;;;4.30;3.53;;;9.40;99.90;;;;;;5042687;28;20185;-61
2024/03/23 07:07:05;;;;;;;5.40;3.70;;;9.40;99.90;;;;;;5048673;28;20611;-60
2024/03/23 07:09:31;;;;;;;6.80;4.47;;;9.40;99.90;;;;;;5044006;28;20520;-61
2024/03/23 07:11:57;;;;;;;6.40;5.47;;;9.30;99.90;;;;;;5047296;28;20499;-60
2024/03/23 07:14:26;;;;;;;7.40;5.03;;;9.30;99.90;;;;;;5045492;28;20603;-61
2024/03/23 07:16:51;;;;;;;6.87;4.97;;;9.20;99.90;;;;;;5048990;28;20464;-61
2024/03/23 07:19:18;;;;;;;6.90;5.00;;;9.10;99.90;;;;;;5043668;28;20472;-60
2024/03/23 07:21:44;;;;;;;5.63;4.07;;;9.00;99.90;;;;;;5041220;28;20215;-62
2024/03/23 07:24:10;;;;;;;6.80;4.10;;;9.00;99.90;;;;;;5041360;28;20603;-61
2024/03/23 07:26:37;;;;;;;5.33;3.50;;;8.90;99.90;;;;;;5046786;28;20437;-60
2024/03/23 07:29:03;;;;;;;4.80;3.13;;;8.80;99.90;;;;;;5043843;28;20435;-61
2024/03/23 07:31:29;;;;;;;5.40;3.13;;;8.70;99.90;;;;;;5042117;28;20425;-60
2024/03/23 07:33:54;;;;;;;4.43;3.50;;;8.60;99.90;;;;;;5040635;28;20951;-61
2024/03/23 07:36:20;;;;;;;2.07;1.70;;;8.60;97.10;;;;;;5041376;28;20207;-60
2024/03/23 07:38:45;;;;;;;1.40;1.30;;;8.50;94.30;;;;;;5036934;28;20203;-61
2024/03/23 07:41:15;;;;;;;8.17;2.10;;;8.50;93.10;;;;;;5043256;28;20175;-60
2024/03/23 07:43:40;;;;;;;1.53;1.30;;;8.40;92.70;;;;;;5043394;28;20171;-61
2024/03/23 07:46:06;;;;;;;1.27;1.17;;;8.30;94.20;;;;;;5038313;28;20418;-61
2024/03/23 07:48:32;;;;;;;1.30;1.20;;;8.30;94.20;;;;;;5046653;28;20175;-60
2024/03/23 07:51:10;;;;;;;1.10;1.00;;;8.30;92.20;;;;;;5033769;28;20449;-60
2024/03/23 07:53:37;;;;;;;1.13;1.00;;;8.20;90.40;;;;;;5035510;28;20441;-60
2024/03/23 07:56:12;;;;;;;1.83;1.30;;;8.20;93.90;;;;;;5039971;28;20463;-60
2024/03/23 07:58:38;;;;;;;1.43;1.30;;;8.30;95.80;;;;;;5039607;28;20529;-60
2024/03/23 08:01:12;;;;;;;1.37;1.27;;;8.30;96.90;;;;;;5044477;28;20806;-60
2024/03/23 08:03:39;;;;;;;1.17;1.10;;;8.30;92.40;;;;;;5039199;28;20437;-60
2024/03/23 08:06:10;;;;;;;1.00;1.00;;;8.30;90.70;;;;;;5040552;28;21159;-61
2024/03/23 08:08:36;;;;;;;1.07;1.07;;;8.30;91.10;;;;;;5042991;28;20436;-60
2024/03/23 08:11:03;;;;;;;1.10;1.00;;;8.20;91.30;;;;;;5044402;28;20435;-59
2024/03/23 08:13:29;;;;;;;1.10;0.93;;;8.20;90.50;;;;;;5042775;28;20438;-63
2024/03/23 08:15:58;;;;;;;0.80;0.80;;;8.20;87.50;;;;;;5036059;28;20996;-63
2024/03/23 08:18:24;;;;;;;1.43;1.10;;;8.10;84.50;;;;;;5040319;28;20241;-61
2024/03/23 08:21:06;;;;;;;1.40;1.30;;;8.10;89.30;;;;;;5031117;28;20755;-62
2024/03/23 08:23:33;;;;;;;0.80;0.80;;;8.10;88.40;;;;;;5026113;28;20175;-63
2024/03/23 08:26:04;;;;;;;1.00;0.90;;;8.10;81.80;;;;;;5041001;28;21131;-62
2024/03/23 08:28:29;;;;;;;0.90;0.90;;;8.00;80.50;;;;;;5040956;28;20540;-62
2024/03/23 08:30:56;;;;;;;0.77;0.77;;;8.00;81.50;;;;;;5043181;28;20524;-62
2024/03/23 08:33:24;;;;;;;1.03;0.90;;;7.90;81.30;;;;;;5042706;28;20190;-62
2024/03/23 08:36:01;;;;;;;1.07;1.00;;;7.80;80.80;;;;;;5034813;28;20522;-62
2024/03/23 08:38:28;;;;;;;0.97;0.97;;;7.70;82.40;;;;;;5039375;28;20463;-62
2024/03/23 08:41:02;;;;;;;2.53;1.00;;;7.70;85.20;;;;;;5044912;28;20437;-62
2024/03/23 08:43:29;;;;;;;1.20;1.10;;;7.80;85.60;;;;;;5018405;28;20420;-63
2024/03/23 08:46:07;;;;;;;1.20;1.10;;;7.80;78.10;;;;;;5035223;28;20429;-58
2024/03/23 08:48:34;;;;;;;1.53;1.30;;;7.80;80.00;;;;;;5029891;28;20418;-62
2024/03/23 08:51:04;;;;;;;2.07;1.20;;;7.90;78.90;;;;;;5027045;28;20433;-63
2024/03/23 08:53:30;;;;;;;2.70;1.53;;;8.00;75.30;;;;;;5042921;28;20451;-62
2024/03/23 08:55:56;;;;;;;3.20;1.57;;;8.00;72.40;;;;;;5023997;28;21153;-61
2024/03/23 08:58:24;;;;;;;1.50;1.40;;;8.10;70.60;;;;;;5033351;28;20469;-60
2024/03/23 09:00:50;;;;;;;2.67;1.70;;;8.10;72.90;;;;;;5038089;28;20438;-61
2024/03/23 09:03:16;;;;;;;5.37;1.43;;;8.20;70.90;;;;;;5049058;28;20792;-62
2024/03/23 09:05:42;;;;;;;3.10;1.80;;;8.30;70.10;;;;;;5045548;28;20440;-61
2024/03/23 09:08:08;;;;;;;2.53;1.67;;;8.40;67.70;;;;;;5020908;28;20214;-61
2024/03/23 09:10:38;;;;;;;2.50;1.73;;;8.30;66.50;;;;;;5046371;28;20700;-62
2024/03/23 09:13:04;;;;;;;3.00;1.67;;;8.30;65.80;;;;;;5044913;28;20445;-62
2024/03/23 09:15:31;;;;;;;3.50;1.90;;;8.20;64.30;;;;;;5041270;28;20444;-61
2024/03/23 09:17:58;;;;;;;3.03;2.10;;;8.10;64.20;;;;;;5042916;28;20237;-61
2024/03/23 09:20:24;;;;;;;1.70;1.60;;;8.00;64.60;;;;;;5045508;28;20436;-61
2024/03/23 09:22:49;;;;;;;3.67;2.10;;;8.00;65.80;;;;;;5042447;28;20434;-62
2024/03/23 09:25:15;;;;;;;4.27;2.40;;;8.10;65.60;;;;;;5047117;28;20244;-62
2024/03/23 09:27:40;;;;;;;5.10;2.33;;;8.20;63.40;;;;;;5050044;28;20206;-62
2024/03/23 09:30:06;;;;;;;3.37;2.30;;;8.30;64.10;;;;;;5047808;28;20195;-62
2024/03/23 09:32:32;;;;;;;4.87;2.33;;;8.40;62.80;;;;;;5048528;28;20195;-61
2024/03/23 09:34:58;;;;;;;5.23;2.37;;;8.50;62.80;;;;;;5032994;28;20444;-62
2024/03/23 09:37:23;;;;;;;1.97;1.70;;;8.70;62.70;;;;;;5045400;28;20276;-62
2024/03/23 09:39:49;;;;;;;6.87;2.40;;;8.80;61.00;;;;;;5045142;28;20202;-62
2024/03/23 09:42:14;;;;;;;8.10;2.70;;;8.80;60.00;;;;;;5046799;28;20233;-62
2024/03/23 09:44:40;;;;;;;3.67;2.60;;;8.90;59.90;;;;;;5031663;28;20248;-62
2024/03/23 09:47:08;;;;;;;3.30;2.53;;;8.90;59.90;;;;;;5023730;28;20282;-61
2024/03/23 09:49:36;;;;;;;3.53;2.43;;;9.10;59.40;;;;;;5047270;28;20575;-61
2024/03/23 09:52:02;;;;;;;5.30;3.00;;;9.20;57.70;;;;;;5059753;28;20421;-60
2024/03/23 09:54:28;;;;;;;7.13;3.37;;;9.30;56.30;;;;;;5051160;28;20424;-61
2024/03/23 09:56:54;;;;;;;6.30;3.27;;;9.40;57.30;;;;;;5047685;28;20446;-62
2024/03/23 09:59:19;;;;;;;5.90;3.00;;;9.60;58.00;;;;;;5030854;28;20313;-61
2024/03/23 10:01:45;;;;;;;9.73;3.47;;;9.70;58.10;;;;;;5047285;28;20192;-61
2024/03/23 10:04:11;;;;;;;8.03;3.03;;;9.80;55.50;;;;;;5050742;28;20187;-61
2024/03/23 10:06:37;;;;;;;10.00;3.03;;;9.80;55.80;;;;;;5048229;28;20228;-61
2024/03/23 10:09:18;;;;;;;9.73;3.00;;;9.80;55.30;;;;;;5047588;28;20452;-61
2024/03/23 10:11:48;;;;;;;7.20;2.93;;;9.70;53.90;;;;;;5046576;28;20201;-61
2024/03/23 10:14:29;;;;;;;8.60;2.60;;;9.50;52.40;;;;;;5050006;28;20781;-61
2024/03/23 10:17:14;;;;;;;5.77;3.17;;;9.40;53.60;;;;;;5047578;28;20469;-61
2024/03/23 10:19:42;;;;;;;9.83;3.43;;;9.50;54.60;;;;;;5043246;28;21303;-61
2024/03/23 10:22:09;;;;;;;13.20;3.33;;;9.50;53.60;;;;;;5041158;28;20544;-61
2024/03/23 10:24:34;;;;;;;6.47;3.07;;;9.40;53.40;;;;;;5043816;28;20503;-61
2024/03/23 10:27:00;;;;;;;8.90;3.87;;;9.40;54.00;;;;;;5039020;28;20476;-61
2024/03/23 10:29:28;;;;;;;7.67;3.10;;;9.50;54.00;;;;;;5041558;28;20189;-62
2024/03/23 10:31:55;;;;;;;8.70;3.30;;;9.60;54.30;;;;;;5038762;28;20183;-62
2024/03/23 10:34:26;;;;;;;6.53;3.20;;;9.80;54.90;;;;;;5038116;28;20430;-61
2024/03/23 10:36:54;;;;;;;6.33;2.93;;;9.80;52.80;;;;;;5036911;28;20492;-61
2024/03/23 10:39:21;;;;;;;5.77;3.03;;;9.90;54.00;;;;;;5039427;28;20472;-61
2024/03/23 10:41:50;;;;;;;9.60;3.17;;;10.00;51.70;;;;;;5035899;28;20430;-62
2024/03/23 10:44:19;;;;;;;5.70;2.70;;;10.10;51.30;;;;;;5047392;28;20946;-61
2024/03/23 10:46:45;;;;;;;4.40;2.87;;;10.20;51.60;;;;;;5023774;28;20449;-61
2024/03/23 10:49:10;;;;;;;6.87;3.40;;;10.20;49.80;;;;;;5026893;28;20441;-61
2024/03/23 10:51:37;;;;;;;6.20;3.40;;;10.10;49.20;;;;;;5041609;28;20225;-62
2024/03/23 10:54:07;;;;;;;10.00;3.10;;;10.10;50.40;;;;;;5037659;28;20258;-61
2024/03/23 10:56:35;;;;;;;5.47;2.50;;;10.10;48.60;;;;;;5031974;28;20486;-61
2024/03/23 10:59:05;;;;;;;6.07;2.70;;;10.10;49.20;;;;;;5038200;28;20476;-62
2024/03/23 11:01:31;;;;;;;2.70;2.27;;;10.00;49.50;;;;;;5040978;28;20433;-60
2024/03/23 11:03:56;;;;;;;5.07;2.80;;;10.00;49.70;;;;;;5043854;28;20475;-66
2024/03/23 11:06:40;;;;;;;8.00;2.90;;;10.00;48.90;;;;;;5039801;28;20287;-59
2024/03/23 11:09:37;;;;;;;5.27;3.00;;;10.00;49.00;;;;;;5040409;28;20541;-58
2024/03/23 11:12:21;;;;;;;5.60;2.70;;;10.10;50.50;;;;;;5042646;28;20445;-57
2024/03/23 11:14:49;;;;;;;6.40;2.97;;;10.30;49.30;;;;;;5042218;28;20521;-59
2024/03/23 11:17:18;;;;;;;7.20;2.53;;;10.60;48.90;;;;;;5041661;28;20477;-61
2024/03/23 11:19:44;;;;;;;3.00;2.30;;;10.70;48.40;;;;;;5037642;28;20437;-61
2024/03/23 11:22:10;;;;;;;6.60;2.50;;;10.80;47.60;;;;;;5039762;28;20432;-62
2024/03/23 11:24:36;;;;;;;4.07;2.20;;;10.90;46.50;;;;;;5037919;28;20198;-62
2024/03/23 11:27:15;;;;;;;5.33;2.50;;;10.90;46.20;;;;;;5045493;28;20235;-61
2024/03/23 11:29:41;;;;;;;8.53;2.80;;;10.90;46.90;;;;;;5039873;28;20425;-60
2024/03/23 11:32:10;;;;;;;10.67;2.23;;;10.90;46.70;;;;;;5043914;28;20430;-63
2024/03/23 11:34:36;;;;;;;2.63;2.03;;;11.00;47.30;;;;;;5027010;28;20406;-61
2024/03/23 11:37:06;;;;;;;4.63;2.33;;;11.10;47.20;;;;;;5040070;28;20444;-61
2024/03/23 11:39:31;;;;;;;2.70;1.93;;;11.20;47.70;;;;;;5035205;28;20545;-62
2024/03/23 11:41:57;;;;;;;3.90;1.97;;;11.20;47.90;;;;;;5033795;28;20512;-62
2024/03/23 11:44:25;;;;;;;2.30;1.73;;;11.20;48.50;;;;;;5036832;28;20187;-63
2024/03/23 11:46:54;;;;;;;3.07;1.73;;;11.30;49.30;;;;;;5039103;28;20207;-61
2024/03/23 11:49:29;;;;;;;3.00;1.80;;;11.20;49.40;;;;;;5038579;28;20433;-60
2024/03/23 11:51:56;;;;;;;5.50;2.33;;;11.30;50.20;;;;;;5040835;28;21034;-61
2024/03/23 11:54:26;;;;;;;3.20;2.20;;;11.40;50.10;;;;;;5016687;28;20441;-61
2024/03/23 11:56:59;;;;;;;7.73;2.67;;;11.30;50.50;;;;;;5041738;28;20549;-61
2024/03/23 11:59:34;;;;;;;3.20;1.80;;;11.00;52.00;;;;;;5044138;28;20465;-61
2024/03/23 12:02:00;;;;;;;4.13;2.20;;;10.50;55.50;;;;;;5040323;28;20437;-60
2024/03/23 12:04:29;;;;;;;3.43;2.60;;;9.70;58.10;;;;;;5039004;28;20430;-61
2024/03/23 12:07:15;;;;;;;3.87;1.70;;;9.10;60.00;;;;;;5038525;28;20198;-64
2024/03/23 12:09:41;;;;;;;1.63;1.53;;;8.60;61.80;;;;;;5039038;28;20574;-60
2024/03/23 12:12:19;;;;;;;1.73;1.30;;;8.20;62.50;;;;;;5035210;28;22207;-61
2024/03/23 12:14:45;;;;;;;4.17;1.30;;;7.90;64.80;;;;;;5041818;28;20445;-60
2024/03/23 12:17:10;;;;;;;2.97;2.13;;;7.90;65.20;;;;;;5045947;28;21074;-61
2024/03/23 12:19:36;;;;;;;1.60;1.50;;;7.90;67.00;;;;;;5037172;28;20564;-61
2024/03/23 12:22:04;;;;;;;3.57;1.77;;;8.00;67.00;;;;;;5035862;28;20203;-61
2024/03/23 12:24:30;;;;;;;1.60;1.50;;;8.00;66.90;;;;;;5039090;28;20418;-61
2024/03/23 12:27:04;;;;;;;1.83;1.60;;;8.00;67.00;;;;;;5033330;28;20851;-61
2024/03/23 12:29:31;;;;;;;5.17;1.77;;;8.10;67.30;;;;;;5037445;28;20433;-62
2024/03/23 12:32:00;;;;;;;2.23;1.60;;;8.10;66.60;;;;;;5039487;28;20445;-60
2024/03/23 12:34:26;;;;;;;3.13;2.10;;;8.10;66.10;;;;;;5039949;28;20445;-60
2024/03/23 12:36:51;;;;;;;3.70;1.90;;;8.00;64.70;;;;;;5037736;28;20458;-62
2024/03/23 12:39:18;;;;;;;7.10;2.27;;;7.90;65.20;;;;;;5044688;28;20203;-61
2024/03/23 12:41:43;;;;;;;3.13;1.70;;;7.90;65.00;;;;;;5031236;28;20258;-61
2024/03/23 12:44:11;;;;;;;8.23;2.60;;;7.80;65.10;;;;;;5041879;28;20469;-61
2024/03/23 12:46:37;;;;;;;5.03;2.10;;;7.70;63.10;;;;;;5041874;28;20202;-59
2024/03/23 12:49:03;;;;;;;3.67;2.30;;;7.60;61.90;;;;;;5040778;28;20521;-59
2024/03/23 12:51:29;;;;;;;8.57;2.13;;;7.50;61.50;;;;;;5041404;28;20572;-60